CDT,Max TemperatureF,Mean TemperatureF,Min TemperatureF,Max Dew PointF,MeanDew PointF,Min DewpointF,Max Humidity, Mean Humidity, Min Humidity, Max Sea Level PressureIn, Mean Sea Level PressureIn, Min Sea Level PressureIn, Max VisibilityMiles, Mean VisibilityMiles, Min VisibilityMiles, Max Wind SpeedMPH, Mean Wind SpeedMPH, Max Gust SpeedMPH,PrecipitationIn, CloudCover, Events, WindDirDegrees
2013-7-1,81,64,46,55,49,44,96,64,37,30.21,30.20,30.14,10,10,7,12,2,16,0.00,1,,46
2013-7-2,79,60,41,54,40,30,93,56,17,30.21,30.16,30.10,10,10,10,7,1,16,0.00,0,,20
2013-7-3,82,59,37,55,46,36,93,61,24,30.11,30.05,29.98,10,10,10,7,1,,0.00,0,,154
2013-7-4,84,65,48,59,56,48,97,64,42,30.00,29.96,29.91,10,10,10,14,4,30,0.00,0,,177
2013-7-5,87,78,69,60,58,56,71,51,37,29.94,29.89,29.84,10,10,10,16,7,26,0.00,2,,187
2013-7-6,84,78,73,73,64,59,87,64,51,29.91,29.88,29.86,10,10,6,9,7,20,0.03,3,Rain,184
2013-7-7,87,76,64,72,68,63,100,78,55,29.95,29.89,29.84,10,10,5,10,4,,0.07,5,Rain-Thunderstorm,146
2013-7-8,82,70,57,69,62,57,100,88,60,30.03,29.98,29.91,10,6,1,6,2,,0.00,5,,34
2013-7-9,77,66,55,72,65,55,100,92,78,30.02,29.88,29.78,10,6,0,8,1,,0.40,4,Fog-Rain-Thunderstorm,190
2013-7-10,77,66,57,61,55,50,90,70,40,30.04,29.97,29.88,10,10,8,8,3,18,0.00,3,,298
2013-7-11,81,64,48,59,51,46,100,81,38,30.14,30.09,30.03,10,5,1,9,1,,0.00,1,,174
2013-7-12,84,76,68,62,59,57,70,57,42,30.06,30.01,29.96,10,10,9,16,8,24,0.00,1,,183
2013-7-13,79,74,69,65,61,56,70,64,57,30.11,30.05,29.96,10,10,10,14,8,17,0.00,6,Rain,184
2013-7-14,86,73,62,69,62,59,97,70,44,30.23,30.17,30.12,10,9,2,12,4,16,0.00,3,,188
2013-7-15,88,72,57,68,62,57,100,77,41,30.27,30.24,30.20,10,7,2,9,1,,0.00,1,Rain,186
2013-7-16,91,78,64,71,68,63,93,69,45,30.22,30.19,30.16,10,10,7,12,4,18,0.00,2,,206
2013-7-17,91,76,62,69,66,63,100,76,42,30.25,30.20,30.12,10,7,1,9,1,16,0.00,1,,228
2013-7-18,93,80,68,70,68,66,93,64,44,30.11,29.91,29.70,10,10,10,15,5,31,0.00,2,,218
2013-7-19,82,72,63,72,65,55,96,71,39,29.85,29.74,29.66,10,9,2,12,6,22,0.17,3,Rain-Thunderstorm,254
2013-7-20,73,64,55,58,51,44,96,66,38,30.03,29.96,29.85,10,10,10,9,2,,0.00,4,,48
2013-7-21,75,64,54,60,55,45,87,68,53,30.02,29.95,29.87,10,10,10,10,4,,0.00,4,,125
2013-7-22,86,73,62,68,62,50,94,74,41,29.85,29.73,29.65,10,10,10,12,7,22,0.00,4,,190
2013-7-23,72,62,48,52,48,42,93,64,35,30.05,29.97,29.82,10,10,10,12,3,18,0.00,2,,42
2013-7-24,72,56,42,54,48,40,97,74,47,30.11,30.06,29.99,10,10,2,8,1,16,0.00,3,,212
2013-7-25,82,69,57,61,56,53,93,67,42,29.99,29.93,29.88,10,10,10,12,3,17,0.00,5,Rain-Thunderstorm,211
2013-7-26,69,58,46,59,51,45,100,88,61,30.08,29.97,29.88,10,7,0,9,2,22,0.13,7,Fog-Rain,354
2013-7-27,55,50,45,50,46,43,97,89,72,30.05,29.95,29.88,10,9,2,9,3,16,0.23,7,Rain,299
2013-7-28,63,56,48,57,51,48,100,90,68,30.08,29.98,29.91,10,7,0,6,1,,0.03,8,Fog-Rain,307
2013-7-29,75,58,41,56,47,40,100,83,40,30.15,30.11,30.06,10,5,0,7,1,,0.00,3,Fog,214
2013-7-30,68,62,57,63,59,55,100,86,70,30.16,30.11,30.07,10,8,1,8,2,,0.00,7,Rain,183
2013-7-31,78,65,51,63,57,45,100,81,34,30.08,30.03,29.95,10,6,0,13,1,20,0.02,4,Fog-Rain,252